Adrian, Pennsylvania
Current Conditions -  °F | °C
As of 6:55 PM on Thursday 18 Dec 2014 (Local Time) from KBTP Reporting Station
Overcast Overcast  
Wind Chill: 19°   Ceiling: 2200
Heat Index: 27°   Visibility: 10mi
Dew Point: 23°   Wind: 7mph
Humidity: 86%   Direction: 260°W
Pressure: 30.15"   Gusts: NA
Location:  40.88°N, 79.54°W
Report Text: KBTP 182355Z AUTO 26006KT 10SM SCT016 OVC022 M03/M05 A3015 RMK AO1 11020 21030 410101030 54000
Loading
Personal Weather Stations






























Interactive Weather Map New forecast layout! Learn more

10-Day Weather Forecast

Advertisements
Track Severe Weather on mobile